Time;durP1;ratioP1;P1;durP2;ratioP2;P2;SDS_P1;SDS_P2;PMS_P1;PMS_P2;Temp;Humidity;BMP_temperature;BMP_pressure;BME280_temperature;BME280_humidity;BME280_pressure;Samples;Min_cycle;Max_cycle;Signal;HPM_P1;HPM_P2
2023/09/15 00:00:23;;;;;;;6.43;2.75;;;;;;;11.69;100.00;93314.53;2572335;22;20060;-83
2023/09/15 00:01:24;;;;;;;3.28;2.60;;;;;;;11.71;100.00;93312.16;2575827;22;20008;-83
2023/09/15 00:02:25;;;;;;;5.30;2.75;;;;;;;11.64;100.00;93320.38;2583142;22;20083;-83
2023/09/15 00:03:26;;;;;;;4.03;3.08;;;;;;;11.60;100.00;93317.78;2608449;22;20000;-83
2023/09/15 00:04:27;;;;;;;5.03;2.83;;;;;;;11.57;100.00;93314.00;2595219;22;20007;-83
2023/09/15 00:05:29;;;;;;;2.85;2.42;;;;;;;11.61;100.00;93319.28;2570344;22;20016;-83
2023/09/15 00:06:30;;;;;;;4.53;3.40;;;;;;;11.53;100.00;93320.59;2570288;22;20004;-83
2023/09/15 00:07:31;;;;;;;3.90;2.85;;;;;;;11.40;100.00;93317.81;2583022;22;19999;-82
2023/09/15 00:08:33;;;;;;;3.28;2.97;;;;;;;11.47;100.00;93320.34;2595511;22;20000;-83
2023/09/15 00:09:35;;;;;;;4.05;2.92;;;;;;;11.44;100.00;93320.41;2570911;22;20071;-83
2023/09/15 00:10:39;;;;;;;6.72;3.28;;;;;;;11.49;100.00;93318.00;2570238;23;20001;-83
2023/09/15 00:11:40;;;;;;;5.68;3.05;;;;;;;11.44;100.00;93313.13;2583600;22;20011;-83
2023/09/15 00:12:42;;;;;;;6.00;2.90;;;;;;;11.46;100.00;93315.41;2570786;22;20046;-83
2023/09/15 00:13:45;;;;;;;4.90;3.10;;;;;;;11.38;100.00;93314.81;2570924;22;20179;-84
2023/09/15 00:14:46;;;;;;;3.28;2.63;;;;;;;11.48;100.00;93321.09;2571380;22;20005;-82
2023/09/15 00:15:51;;;;;;;5.90;3.08;;;;;;;11.37;100.00;93316.00;2583111;22;20012;-83
2023/09/15 00:16:53;;;;;;;3.85;2.78;;;;;;;11.38;100.00;93320.16;2571769;22;20001;-82
2023/09/15 00:17:55;;;;;;;4.05;2.95;;;;;;;11.43;100.00;93317.00;2595716;22;20011;-83
2023/09/15 00:18:55;;;;;;;3.28;2.90;;;;;;;11.42;100.00;93312.81;2583072;22;20032;-83
2023/09/15 00:20:01;;;;;;;2.97;2.70;;;;;;;11.42;100.00;93323.53;2570371;22;20051;-82
2023/09/15 00:21:09;;;;;;;4.15;3.08;;;;;;;11.24;100.00;93318.56;2584529;22;20064;-83
2023/09/15 00:22:10;;;;;;;3.08;2.80;;;;;;;11.26;100.00;93307.41;2584336;22;20705;-82
2023/09/15 00:23:11;;;;;;;6.25;2.78;;;;;;;11.31;100.00;93317.63;2583064;22;20000;-83
2023/09/15 00:24:11;;;;;;;5.15;3.00;;;;;;;11.33;100.00;93312.63;2583208;22;20073;-83
2023/09/15 00:25:13;;;;;;;4.22;2.90;;;;;;;11.27;100.00;93306.25;2570518;22;20000;-83
2023/09/15 00:26:14;;;;;;;4.30;3.10;;;;;;;11.15;100.00;93307.66;2570403;22;20392;-83
2023/09/15 00:27:15;;;;;;;3.08;2.38;;;;;;;11.17;100.00;93301.88;2570507;23;20015;-82
2023/09/15 00:28:15;;;;;;;3.38;3.08;;;;;;;11.24;100.00;93301.75;2582966;22;20051;-83
2023/09/15 00:29:16;;;;;;;3.25;2.95;;;;;;;11.22;100.00;93304.06;2583087;22;20014;-83
2023/09/15 00:30:19;;;;;;;5.05;3.20;;;;;;;11.26;100.00;93304.75;2582935;22;19996;-83
2023/09/15 00:31:20;;;;;;;4.57;3.10;;;;;;;11.27;100.00;93298.97;2608518;22;20003;-83
2023/09/15 00:32:21;;;;;;;4.63;3.08;;;;;;;11.23;100.00;93295.63;2595349;22;20046;-83
2023/09/15 00:33:22;;;;;;;3.55;2.75;;;;;;;11.23;100.00;93294.88;2582721;22;20004;-82
2023/09/15 00:34:23;;;;;;;3.67;3.00;;;;;;;11.08;100.00;93300.53;2570411;23;20462;-83
2023/09/15 00:35:28;;;;;;;5.65;2.90;;;;;;;11.13;100.00;93303.88;2595508;22;20003;-81
2023/09/15 00:36:29;;;;;;;6.07;2.95;;;;;;;11.19;100.00;93294.94;2595970;22;20090;-83
2023/09/15 00:37:30;;;;;;;4.03;3.13;;;;;;;11.14;100.00;93300.03;2582793;22;20054;-83
2023/09/15 00:38:32;;;;;;;4.40;2.95;;;;;;;11.23;100.00;93295.63;2582898;22;20000;-83
2023/09/15 00:39:33;;;;;;;5.88;3.13;;;;;;;11.19;100.00;93302.97;2582858;22;20035;-82
2023/09/15 00:40:34;;;;;;;4.45;3.15;;;;;;;11.15;100.00;93298.84;2570225;22;20012;-82
2023/09/15 00:41:45;;;;;;;4.53;2.90;;;;;;;11.15;100.00;93293.50;2570317;23;20366;-83
2023/09/15 00:42:49;;;;;;;4.15;2.72;;;;;;;11.13;100.00;93287.81;2586966;22;20000;-82
2023/09/15 00:43:51;;;;;;;3.58;2.85;;;;;;;10.99;100.00;93294.97;2609057;22;20049;-83
2023/09/15 00:44:52;;;;;;;4.80;2.72;;;;;;;10.90;100.00;93288.69;2595201;22;20057;-82
2023/09/15 00:45:53;;;;;;;3.15;2.75;;;;;;;10.93;100.00;93290.50;2582224;23;20011;-82
2023/09/15 00:46:54;;;;;;;4.53;3.00;;;;;;;10.87;100.00;93294.84;2582513;22;20012;-82
2023/09/15 00:47:56;;;;;;;5.30;3.22;;;;;;;10.80;100.00;93293.09;2595389;22;19999;-83
2023/09/15 00:48:58;;;;;;;3.63;2.83;;;;;;;10.69;100.00;93289.84;2583112;22;20322;-82
2023/09/15 00:50:03;;;;;;;5.15;3.08;;;;;;;10.67;100.00;93292.16;2570873;22;20000;-83
2023/09/15 00:51:06;;;;;;;4.10;2.80;;;;;;;10.73;100.00;93291.28;2596181;22;20019;-83
2023/09/15 00:52:10;;;;;;;3.67;3.22;;;;;;;10.73;100.00;93285.94;2583932;22;20091;-83
2023/09/15 00:53:16;;;;;;;3.28;2.97;;;;;;;10.66;100.00;93285.31;2583342;22;20004;-83
2023/09/15 00:54:17;;;;;;;3.08;2.75;;;;;;;10.65;100.00;93283.81;2572435;22;20035;-82
2023/09/15 00:55:21;;;;;;;3.75;3.30;;;;;;;10.59;100.00;93286.22;2582212;22;20004;-83
2023/09/15 00:56:23;;;;;;;3.58;3.28;;;;;;;10.61;100.00;93273.19;2570380;22;20012;-82
2023/09/15 00:57:25;;;;;;;3.70;3.00;;;;;;;10.69;100.00;93284.50;2582209;22;20075;-83
2023/09/15 00:58:26;;;;;;;3.72;3.17;;;;;;;10.62;100.00;93279.28;2582012;22;20003;-82
2023/09/15 00:59:29;;;;;;;6.03;3.30;;;;;;;10.63;100.00;93278.91;2569616;22;20004;-82
2023/09/15 01:00:30;;;;;;;5.28;2.88;;;;;;;10.52;100.00;93281.75;2570276;22;20000;-83
2023/09/15 01:01:31;;;;;;;8.88;4.00;;;;;;;10.51;100.00;93280.25;2594383;22;20001;-83
2023/09/15 01:02:32;;;;;;;7.10;3.10;;;;;;;10.62;100.00;93277.38;2581850;23;20114;-82
2023/09/15 01:03:38;;;;;;;4.75;3.25;;;;;;;10.65;100.00;93275.81;2569281;23;20005;-83
2023/09/15 01:04:40;;;;;;;3.70;3.08;;;;;;;10.59;100.00;93275.53;2583870;22;20015;-82
2023/09/15 01:05:42;;;;;;;4.97;3.13;;;;;;;10.61;100.00;93280.47;2581776;22;20037;-82
2023/09/15 01:06:47;;;;;;;5.40;3.20;;;;;;;10.57;100.00;93269.84;2581829;22;20090;-82
2023/09/15 01:07:51;;;;;;;4.95;3.10;;;;;;;10.46;100.00;93275.38;2571009;22;20011;-82
2023/09/15 01:08:53;;;;;;;3.78;3.08;;;;;;;10.59;100.00;93270.94;2582732;22;20004;-83
2023/09/15 01:09:54;;;;;;;4.28;3.17;;;;;;;10.56;100.00;93274.44;2582073;22;20070;-82
2023/09/15 01:10:55;;;;;;;4.15;3.30;;;;;;;10.56;100.00;93271.75;2569427;23;20000;-82
2023/09/15 01:11:57;;;;;;;3.63;3.13;;;;;;;10.57;100.00;93262.56;2569110;22;20837;-82
2023/09/15 01:12:57;;;;;;;5.70;3.17;;;;;;;10.63;100.00;93259.44;2569255;22;20008;-82
2023/09/15 01:13:58;;;;;;;5.40;3.00;;;;;;;10.44;100.00;93268.94;2570079;23;20080;-82
2023/09/15 01:15:02;;;;;;;4.85;3.50;;;;;;;10.55;100.00;93270.25;2570238;23;19996;-82
2023/09/15 01:16:03;;;;;;;6.35;3.42;;;;;;;10.47;100.00;93276.16;2583702;22;20028;-84
2023/09/15 01:17:13;;;;;;;4.50;3.20;;;;;;;10.50;100.00;93267.31;2582612;22;20055;-82
2023/09/15 01:18:55;;;;;;;5.25;2.83;;;;;;;10.57;100.00;93273.25;2574212;22;20187;-83
2023/09/15 01:20:09;;;;;;;3.38;2.97;;;;;;;10.54;100.00;93268.75;2565663;23;20401;-83
2023/09/15 01:21:28;;;;;;;3.60;3.28;;;;;;;10.58;100.00;93274.03;2607906;22;20003;-83
2023/09/15 01:22:29;;;;;;;4.70;3.53;;;;;;;10.49;100.00;93265.78;2586475;22;20011;-82
2023/09/15 01:24:12;;;;;;;6.53;2.90;;;;;;;10.57;100.00;93259.13;2595368;22;20010;-83
2023/09/15 01:25:28;;;;;;;5.35;3.42;;;;;;;10.43;100.00;93264.75;2600385;22;20027;-83
2023/09/15 01:26:35;;;;;;;5.70;3.63;;;;;;;10.43;100.00;93257.50;2595117;22;20082;-85
2023/09/15 01:27:46;;;;;;;3.72;3.17;;;;;;;10.31;100.00;93269.53;2572978;22;20087;-83
2023/09/15 01:28:49;;;;;;;3.85;3.30;;;;;;;10.48;100.00;93258.94;2586676;22;20004;-82
2023/09/15 01:29:56;;;;;;;3.75;3.30;;;;;;;10.40;100.00;93262.91;2595774;22;20000;-83
2023/09/15 01:30:59;;;;;;;4.75;3.42;;;;;;;10.41;100.00;93267.09;2583753;22;20008;-83
2023/09/15 01:32:01;;;;;;;4.55;3.20;;;;;;;10.42;100.00;93265.94;2596033;22;20000;-84
2023/09/15 01:33:05;;;;;;;6.38;3.40;;;;;;;10.44;100.00;93261.66;2595233;22;20007;-83
2023/09/15 01:34:06;;;;;;;8.15;3.33;;;;;;;10.37;100.00;93264.50;2583766;22;20099;-83
2023/09/15 01:35:07;;;;;;;5.05;3.58;;;;;;;10.41;100.00;93265.19;2582854;22;20000;-83
2023/09/15 01:36:08;;;;;;;6.97;3.33;;;;;;;10.35;100.00;93269.47;2582310;22;19996;-81
2023/09/15 01:37:09;;;;;;;5.15;3.70;;;;;;;10.41;100.00;93267.84;2582570;22;20058;-83
2023/09/15 01:38:10;;;;;;;4.25;3.28;;;;;;;10.39;100.00;93267.50;2595324;22;20008;-82
2023/09/15 01:39:11;;;;;;;3.95;3.55;;;;;;;10.46;100.00;93263.94;2595134;22;20425;-83
2023/09/15 01:40:12;;;;;;;4.40;3.70;;;;;;;10.33;100.00;93269.16;2570094;22;20001;-83
2023/09/15 01:41:13;;;;;;;5.22;3.72;;;;;;;10.40;100.00;93266.31;2569968;22;20001;-83
2023/09/15 01:42:14;;;;;;;9.95;4.20;;;;;;;10.46;100.00;93274.63;2595425;22;20007;-83
2023/09/15 01:43:15;;;;;;;3.42;3.10;;;;;;;10.40;100.00;93268.25;2607912;22;20003;-82
2023/09/15 01:44:16;;;;;;;4.22;3.45;;;;;;;10.30;100.00;93269.97;2582413;23;20455;-82
2023/09/15 01:45:17;;;;;;;4.07;3.20;;;;;;;10.27;100.00;93271.56;2582354;22;20103;-82
2023/09/15 01:46:23;;;;;;;4.57;3.40;;;;;;;10.29;100.00;93271.88;2569629;23;20031;-84
2023/09/15 01:47:27;;;;;;;4.55;3.65;;;;;;;10.36;100.00;93267.56;2572267;22;20519;-83
2023/09/15 01:48:30;;;;;;;4.97;3.30;;;;;;;10.40;100.00;93269.00;2571338;22;20128;-84
2023/09/15 01:49:31;;;;;;;4.97;3.63;;;;;;;10.31;100.00;93268.78;2596035;22;20333;-83
2023/09/15 01:50:32;;;;;;;6.35;3.30;;;;;;;10.26;100.00;93271.94;2595248;22;20004;-82
2023/09/15 01:51:34;;;;;;;3.95;3.20;;;;;;;10.31;100.00;93274.88;2570308;22;20319;-83
2023/09/15 01:52:36;;;;;;;5.97;3.50;;;;;;;10.36;100.00;93275.56;2570516;22;20005;-83
2023/09/15 01:53:37;;;;;;;6.78;3.38;;;;;;;10.32;100.00;93267.66;2570630;22;20005;-83
2023/09/15 01:54:38;;;;;;;4.40;3.88;;;;;;;10.25;100.00;93267.75;2595175;22;20003;-83
2023/09/15 01:55:41;;;;;;;6.63;3.65;;;;;;;10.24;100.00;93271.56;2595227;22;20114;-83
2023/09/15 01:56:42;;;;;;;3.72;3.28;;;;;;;10.24;100.00;93268.91;2583254;22;20080;-83
2023/09/15 01:57:43;;;;;;;6.60;3.67;;;;;;;10.16;100.00;93272.88;2582443;22;20000;-83
2023/09/15 01:58:45;;;;;;;6.43;3.40;;;;;;;10.18;100.00;93265.19;2569716;22;20012;-84
2023/09/15 01:59:46;;;;;;;5.10;3.92;;;;;;;10.16;100.00;93272.88;2582928;22;20011;-82
2023/09/15 02:00:47;;;;;;;3.90;3.50;;;;;;;10.16;100.00;93265.59;2595249;22;20003;-83
2023/09/15 02:01:48;;;;;;;3.70;3.30;;;;;;;10.18;100.00;93265.19;2582697;22;20414;-82
2023/09/15 02:02:49;;;;;;;6.18;3.65;;;;;;;10.15;100.00;93264.09;2582477;22;20047;-83
2023/09/15 02:03:50;;;;;;;4.53;3.40;;;;;;;10.13;100.00;93268.31;2595303;22;20019;-83
2023/09/15 02:04:51;;;;;;;4.88;3.80;;;;;;;10.00;100.00;93273.50;2582143;22;20012;-82
2023/09/15 02:05:52;;;;;;;4.10;3.42;;;;;;;9.91;100.00;93278.63;2582468;22;20008;-84
2023/09/15 02:06:53;;;;;;;4.78;3.33;;;;;;;9.91;100.00;93271.34;2594867;22;20011;-83
2023/09/15 02:07:54;;;;;;;5.30;3.45;;;;;;;10.08;100.00;93272.22;2582313;22;20014;-83
2023/09/15 02:08:56;;;;;;;3.65;3.15;;;;;;;10.07;100.00;93273.41;2582341;22;20000;-83
2023/09/15 02:09:57;;;;;;;5.93;3.42;;;;;;;10.05;100.00;93271.13;2582597;22;20004;-84
2023/09/15 02:10:59;;;;;;;6.45;3.88;;;;;;;9.99;100.00;93277.34;2582682;22;20411;-82
2023/09/15 02:11:59;;;;;;;3.97;3.28;;;;;;;10.13;100.00;93268.31;2570144;22;20032;-83
2023/09/15 02:13:00;;;;;;;4.60;3.75;;;;;;;10.13;100.00;93277.09;2569991;22;20055;-84
2023/09/15 02:14:01;;;;;;;4.40;3.38;;;;;;;10.10;100.00;93272.59;2582383;22;20038;-83
2023/09/15 02:15:04;;;;;;;3.75;3.30;;;;;;;10.14;100.00;93278.63;2582408;22;20038;-82
2023/09/15 02:16:05;;;;;;;4.28;2.92;;;;;;;10.05;100.00;93276.47;2582204;22;20004;-83
2023/09/15 02:17:07;;;;;;;6.03;3.97;;;;;;;9.94;100.00;93275.91;2570237;22;20004;-82
2023/09/15 02:18:14;;;;;;;4.00;3.10;;;;;;;9.96;100.00;93270.13;2570197;23;20001;-82
2023/09/15 02:19:15;;;;;;;4.15;3.25;;;;;;;9.89;100.00;93268.34;2583835;22;20058;-83
2023/09/15 02:20:18;;;;;;;8.25;3.00;;;;;;;10.02;100.00;93271.94;2569784;23;20605;-83
2023/09/15 02:23:05;;;;;;;5.72;3.47;;;;;;;9.58;100.00;93273.06;2128664;27;20183;-83
2023/09/15 02:24:06;;;;;;;5.97;3.42;;;;;;;9.65;100.00;93270.25;2104745;28;20089;-83
2023/09/15 02:25:11;;;;;;;6.32;3.40;;;;;;;9.62;100.00;93265.00;2092925;28;20068;-82
2023/09/15 02:26:11;;;;;;;5.50;3.30;;;;;;;9.64;100.00;93262.66;2097120;28;20024;-82
2023/09/15 02:27:12;;;;;;;5.88;3.63;;;;;;;9.64;100.00;93262.66;2103550;28;20524;-83
2023/09/15 02:28:13;;;;;;;4.57;3.47;;;;;;;9.57;100.00;93268.88;2104735;28;20028;-83
2023/09/15 02:29:15;;;;;;;4.32;3.50;;;;;;;9.56;100.00;93265.44;2096618;28;20562;-83
2023/09/15 02:30:15;;;;;;;4.57;3.75;;;;;;;9.45;100.00;93267.53;2094407;28;20070;-82
2023/09/15 02:31:16;;;;;;;7.53;3.63;;;;;;;9.53;100.00;93263.59;2096291;28;20021;-82
2023/09/15 02:32:17;;;;;;;4.32;3.17;;;;;;;9.46;100.00;93260.28;2104532;28;20023;-82
2023/09/15 02:33:19;;;;;;;4.32;3.42;;;;;;;9.37;100.00;93266.13;2099907;28;20020;-84
2023/09/15 02:34:20;;;;;;;3.63;3.10;;;;;;;9.36;100.00;93261.94;2096479;28;20752;-83
2023/09/15 02:35:20;;;;;;;6.03;3.22;;;;;;;9.34;100.00;93261.56;2111484;28;20035;-82
2023/09/15 02:36:21;;;;;;;6.13;4.20;;;;;;;9.37;100.00;93263.44;2111584;28;20020;-82
2023/09/15 02:37:22;;;;;;;5.68;3.13;;;;;;;9.29;100.00;93262.03;2100663;28;20109;-83
2023/09/15 02:38:23;;;;;;;4.88;2.83;;;;;;;9.27;100.00;93267.78;2104676;28;20416;-83
2023/09/15 02:39:24;;;;;;;6.65;3.40;;;;;;;9.40;100.00;93267.97;2096203;28;20108;-82
2023/09/15 02:40:26;;;;;;;7.25;3.63;;;;;;;9.38;100.00;93264.94;2104587;28;20025;-82
2023/09/15 02:41:26;;;;;;;4.07;2.92;;;;;;;9.33;100.00;93266.16;2104525;28;20463;-82
2023/09/15 02:42:27;;;;;;;5.70;3.50;;;;;;;9.26;100.00;93255.63;2104508;28;20024;-82
2023/09/15 02:43:28;;;;;;;5.40;3.55;;;;;;;9.24;100.00;93262.50;2109804;28;20107;-83
2023/09/15 02:44:29;;;;;;;4.18;3.33;;;;;;;9.22;100.00;93254.91;2113213;28;20090;-82
2023/09/15 02:45:35;;;;;;;4.22;3.35;;;;;;;9.22;100.00;93254.91;2095997;28;20021;-83
2023/09/15 02:46:37;;;;;;;7.20;3.83;;;;;;;9.23;100.00;93253.75;2096810;28;20024;-82
2023/09/15 02:47:38;;;;;;;6.50;3.35;;;;;;;9.11;100.00;93256.97;2088245;28;20108;-83
2023/09/15 02:48:41;;;;;;;7.78;3.58;;;;;;;9.18;100.00;93256.88;2087904;28;20486;-83
2023/09/15 02:49:42;;;;;;;6.18;3.30;;;;;;;9.21;100.00;93255.28;2088813;28;20027;-82
2023/09/15 02:50:43;;;;;;;7.88;3.38;;;;;;;9.10;100.00;93258.13;2087952;28;20040;-84
2023/09/15 02:51:44;;;;;;;8.57;3.58;;;;;;;9.25;100.00;93251.41;2087897;28;20017;-82
2023/09/15 02:52:45;;;;;;;10.15;3.05;;;;;;;9.23;100.00;93261.75;2096224;28;20054;-82
2023/09/15 02:53:46;;;;;;;4.13;3.08;;;;;;;9.24;100.00;93259.81;2096274;28;20262;-82
2023/09/15 02:54:50;;;;;;;5.13;3.30;;;;;;;9.24;100.00;93257.16;2097963;28;20607;-83
2023/09/15 02:55:59;;;;;;;6.75;4.00;;;;;;;9.24;100.00;93260.59;2112734;28;20421;-82
2023/09/15 02:57:00;;;;;;;4.68;3.25;;;;;;;9.26;100.00;93250.28;2103410;28;20024;-83
2023/09/15 02:58:01;;;;;;;5.07;3.30;;;;;;;9.31;100.00;93257.06;2095374;28;20033;-83
2023/09/15 02:59:02;;;;;;;4.88;3.25;;;;;;;9.25;100.00;93256.75;2095590;28;20020;-83
2023/09/15 03:00:07;;;;;;;4.15;3.28;;;;;;;9.24;100.00;93257.91;2096155;28;20036;-83
2023/09/15 03:01:13;;;;;;;5.60;3.30;;;;;;;9.23;100.00;93253.00;2097370;28;20030;-83
2023/09/15 03:02:15;;;;;;;4.25;3.13;;;;;;;9.19;100.00;93257.63;2104638;28;20029;-83
2023/09/15 03:03:15;;;;;;;5.57;3.10;;;;;;;9.17;100.00;93251.91;2104736;28;20065;-83
2023/09/15 03:04:16;;;;;;;5.55;3.50;;;;;;;9.17;100.00;93259.91;2113030;28;20023;-83
2023/09/15 03:05:20;;;;;;;5.50;3.05;;;;;;;9.13;100.00;93253.88;2096141;28;20021;-83
2023/09/15 03:06:22;;;;;;;4.78;3.40;;;;;;;9.06;100.00;93247.50;2095701;28;20021;-83
2023/09/15 03:07:23;;;;;;;5.88;3.17;;;;;;;9.15;100.00;93254.25;2096438;28;20032;-82
2023/09/15 03:08:24;;;;;;;3.72;3.33;;;;;;;9.18;100.00;93246.19;2095708;28;20116;-83
2023/09/15 03:09:26;;;;;;;4.55;3.38;;;;;;;9.16;100.00;93248.50;2088192;28;20079;-83
2023/09/15 03:10:26;;;;;;;4.60;3.58;;;;;;;9.08;100.00;93253.16;2096260;28;20556;-83
2023/09/15 03:11:27;;;;;;;4.60;2.97;;;;;;;9.05;100.00;93259.31;2097642;28;20067;-83
2023/09/15 03:12:28;;;;;;;4.55;3.30;;;;;;;8.98;100.00;93256.00;2112896;28;20024;-83
2023/09/15 03:13:29;;;;;;;3.72;3.17;;;;;;;9.03;100.00;93250.97;2099805;28;20158;-83
2023/09/15 03:14:31;;;;;;;9.82;3.92;;;;;;;9.14;100.00;93258.06;2087867;28;20358;-82
2023/09/15 03:15:32;;;;;;;5.35;3.67;;;;;;;9.13;100.00;93257.31;2103530;28;20447;-83
2023/09/15 03:16:33;;;;;;;4.60;2.97;;;;;;;9.12;100.00;93261.13;2096000;28;20433;-83
2023/09/15 03:17:37;;;;;;;6.72;3.65;;;;;;;9.11;100.00;93250.88;2104126;28;20103;-84
2023/09/15 03:18:37;;;;;;;12.98;3.58;;;;;;;9.05;100.00;93254.00;2101719;28;20055;-84
2023/09/15 03:19:38;;;;;;;5.00;3.58;;;;;;;9.07;100.00;93250.91;2087659;28;20021;-83
2023/09/15 03:20:39;;;;;;;8.23;3.53;;;;;;;9.05;100.00;93250.56;2087748;28;20059;-82
2023/09/15 03:21:40;;;;;;;4.47;2.90;;;;;;;9.11;100.00;93248.97;2095881;28;20373;-83
2023/09/15 03:22:46;;;;;;;4.70;3.45;;;;;;;9.16;100.00;93253.09;2104053;28;20496;-83
2023/09/15 03:23:49;;;;;;;3.17;2.88;;;;;;;9.11;100.00;93253.53;2104010;28;20024;-83
2023/09/15 03:24:50;;;;;;;5.00;3.20;;;;;;;9.11;100.00;93248.22;2088113;28;20021;-81
2023/09/15 03:25:58;;;;;;;3.70;3.20;;;;;;;9.00;100.00;93249.13;2095769;28;20115;-82
2023/09/15 03:27:00;;;;;;;3.67;3.25;;;;;;;9.07;100.00;93245.59;2082046;28;20025;-82
2023/09/15 03:28:01;;;;;;;7.20;3.20;;;;;;;9.11;100.00;93248.97;2080232;28;20081;-82
2023/09/15 03:29:02;;;;;;;5.80;3.28;;;;;;;9.12;100.00;93247.03;2087370;28;20565;-82
2023/09/15 03:30:04;;;;;;;5.20;3.67;;;;;;;9.14;100.00;93244.75;2096064;28;20043;-82
2023/09/15 03:31:05;;;;;;;4.72;3.20;;;;;;;9.12;100.00;93247.03;2104108;28;20024;-82
2023/09/15 03:32:06;;;;;;;5.47;3.50;;;;;;;9.11;100.00;93240.22;2102547;28;20035;-83
2023/09/15 03:33:07;;;;;;;5.07;3.35;;;;;;;8.95;100.00;93244.22;2086764;28;20036;-82
2023/09/15 03:34:08;;;;;;;3.85;3.53;;;;;;;9.01;100.00;93245.28;2083945;28;20022;-82
2023/09/15 03:35:10;;;;;;;4.95;3.58;;;;;;;9.02;100.00;93246.03;2094063;28;20025;-83
2023/09/15 03:36:12;;;;;;;5.43;3.50;;;;;;;9.03;100.00;93236.88;2082174;28;20036;-82
2023/09/15 03:37:12;;;;;;;4.55;3.15;;;;;;;9.03;100.00;93247.53;2081746;28;20091;-81
2023/09/15 03:38:13;;;;;;;4.95;3.35;;;;;;;9.09;100.00;93243.28;2082115;28;20476;-83
2023/09/15 03:39:14;;;;;;;4.55;3.15;;;;;;;9.04;100.00;93239.16;2082356;28;20029;-82
2023/09/15 03:40:15;;;;;;;8.45;3.75;;;;;;;9.00;100.00;93230.47;2079719;28;20025;-82
2023/09/15 03:41:16;;;;;;;3.90;3.15;;;;;;;8.96;100.00;93237.75;2090323;28;20074;-83
2023/09/15 03:42:17;;;;;;;6.78;3.72;;;;;;;8.86;100.00;93237.88;2098491;28;20489;-83
2023/09/15 03:43:18;;;;;;;4.55;3.40;;;;;;;8.92;100.00;93229.03;2093235;28;20029;-82
2023/09/15 03:44:21;;;;;;;5.07;3.65;;;;;;;8.93;100.00;93232.47;2090247;28;20354;-83
2023/09/15 03:45:21;;;;;;;3.63;3.00;;;;;;;8.86;100.00;93233.28;2096572;28;20062;-83
2023/09/15 03:46:24;;;;;;;6.63;3.78;;;;;;;8.86;100.00;93232.53;2089909;28;20025;-82
2023/09/15 03:47:27;;;;;;;5.28;3.58;;;;;;;8.85;100.00;93231.78;2082465;28;20581;-82
2023/09/15 03:48:29;;;;;;;4.00;3.35;;;;;;;8.85;100.00;93223.78;2078561;28;20033;-83
2023/09/15 03:49:30;;;;;;;3.97;3.20;;;;;;;8.94;100.00;93220.63;2082303;28;20037;-81
2023/09/15 03:50:32;;;;;;;5.72;3.33;;;;;;;8.91;100.00;93222.22;2074878;28;20105;-83
2023/09/15 03:51:33;;;;;;;5.38;3.95;;;;;;;8.93;100.00;93219.88;2076051;28;20075;-82
2023/09/15 03:52:34;;;;;;;6.03;3.45;;;;;;;8.93;100.00;93235.13;2098740;28;20016;-83
2023/09/15 03:53:35;;;;;;;7.40;3.55;;;;;;;8.88;100.00;93222.25;2106778;28;20097;-82
2023/09/15 03:54:36;;;;;;;5.10;3.90;;;;;;;8.86;100.00;93225.31;2090121;28;20051;-83
2023/09/15 03:55:37;;;;;;;5.18;3.67;;;;;;;8.89;100.00;93221.84;2090089;28;20108;-82
2023/09/15 03:56:38;;;;;;;5.88;3.50;;;;;;;8.83;100.00;93218.13;2084456;28;21195;-82
2023/09/15 03:57:39;;;;;;;5.78;3.58;;;;;;;8.79;100.00;93225.41;2090117;28;20017;-82
2023/09/15 03:58:40;;;;;;;4.28;3.25;;;;;;;8.78;100.00;93223.88;2098079;28;20020;-82
2023/09/15 03:59:41;;;;;;;4.65;3.30;;;;;;;8.83;100.00;93221.53;2090080;28;20036;-82
2023/09/15 04:00:43;;;;;;;4.57;3.60;;;;;;;8.88;100.00;93228.34;2081800;28;20032;-83
2023/09/15 04:01:46;;;;;;;4.68;3.42;;;;;;;8.92;100.00;93228.28;2082114;28;20029;-83
2023/09/15 04:02:46;;;;;;;4.18;3.30;;;;;;;8.86;100.00;93225.31;2090497;28;20029;-83
2023/09/15 04:03:47;;;;;;;4.88;3.28;;;;;;;8.90;100.00;93228.66;2081959;28;20018;-82
2023/09/15 04:04:48;;;;;;;4.93;3.22;;;;;;;8.89;100.00;93226.41;2082088;28;20052;-82
2023/09/15 04:05:50;;;;;;;4.30;3.55;;;;;;;8.89;100.00;93227.16;2090255;28;20126;-82
2023/09/15 04:06:51;;;;;;;3.83;3.45;;;;;;;8.82;100.00;93225.38;2089974;28;20024;-83
2023/09/15 04:07:52;;;;;;;5.53;3.65;;;;;;;8.83;100.00;93224.22;2090339;28;20036;-83
2023/09/15 04:08:53;;;;;;;5.28;3.47;;;;;;;8.88;100.00;93214.25;2089534;28;20074;-82
2023/09/15 04:09:56;;;;;;;4.05;3.00;;;;;;;8.89;100.00;93219.16;2081821;28;20032;-82
2023/09/15 04:10:57;;;;;;;5.68;3.40;;;;;;;8.86;100.00;93214.63;2082547;28;20056;-83
2023/09/15 04:11:58;;;;;;;5.10;3.40;;;;;;;8.91;100.00;93216.88;2084573;28;20458;-83
2023/09/15 04:13:14;;;;;;;6.57;3.60;;;;;;;8.83;100.00;93215.47;2090440;28;20136;-83
2023/09/15 04:14:14;;;;;;;4.05;3.22;;;;;;;8.85;100.00;93220.38;2100318;28;20035;-84
2023/09/15 04:15:16;;;;;;;4.57;3.28;;;;;;;8.79;100.00;93212.09;2092703;28;20063;-81
2023/09/15 04:16:17;;;;;;;5.40;3.65;;;;;;;8.72;100.00;93215.59;2090028;28;20425;-83
2023/09/15 04:17:18;;;;;;;3.85;3.17;;;;;;;8.77;100.00;93212.47;2089961;28;20096;-82
2023/09/15 04:18:21;;;;;;;5.03;3.53;;;;;;;8.74;100.00;93209.88;2086966;28;20112;-84
2023/09/15 04:19:22;;;;;;;4.63;3.17;;;;;;;8.73;100.00;93211.75;2081954;28;20113;-83
2023/09/15 04:20:22;;;;;;;7.05;3.83;;;;;;;8.75;100.00;93212.13;2087710;28;20021;-82
2023/09/15 04:21:23;;;;;;;4.20;3.28;;;;;;;8.74;100.00;93212.53;2089497;28;20040;-82
2023/09/15 04:22:26;;;;;;;3.70;3.22;;;;;;;8.75;100.00;93216.72;2089731;28;20025;-83
2023/09/15 04:23:27;;;;;;;4.93;3.50;;;;;;;8.69;100.00;93219.06;2101877;28;20416;-83
2023/09/15 04:24:28;;;;;;;5.47;3.83;;;;;;;8.64;100.00;93211.50;2098178;28;20509;-82
2023/09/15 04:25:30;;;;;;;5.55;3.60;;;;;;;8.60;100.00;93218.78;2096950;28;20098;-83
2023/09/15 04:26:31;;;;;;;4.57;3.38;;;;;;;8.66;100.00;93219.88;2089499;28;20532;-83
2023/09/15 04:27:32;;;;;;;5.50;3.40;;;;;;;8.71;100.00;93230.06;2081823;28;20151;-82
2023/09/15 04:28:33;;;;;;;7.05;3.78;;;;;;;8.74;100.00;93223.19;2082632;28;20029;-83
2023/09/15 04:29:51;;;;;;;7.38;4.35;;;;;;;8.72;100.00;93220.91;2090060;28;20505;-82
2023/09/15 04:30:52;;;;;;;4.40;3.22;;;;;;;8.71;100.00;93211.41;2086385;28;20120;-83
2023/09/15 04:31:53;;;;;;;4.68;3.50;;;;;;;8.75;100.00;93217.47;2093716;28;20021;-83
2023/09/15 04:32:55;;;;;;;4.95;3.67;;;;;;;8.76;100.00;93220.88;2089757;28;20045;-82
2023/09/15 04:33:56;;;;;;;5.32;3.80;;;;;;;8.73;100.00;93219.00;2089933;28;20045;-82
2023/09/15 04:34:57;;;;;;;6.35;4.05;;;;;;;8.66;100.00;93224.44;2082344;28;20025;-83
2023/09/15 04:35:58;;;;;;;4.65;3.40;;;;;;;8.77;100.00;93220.47;2098267;28;20017;-82
2023/09/15 04:36:58;;;;;;;7.68;4.10;;;;;;;8.80;100.00;93218.91;2097963;28;20025;-82
2023/09/15 04:37:59;;;;;;;7.70;3.65;;;;;;;8.85;100.00;93217.72;2081711;28;20052;-82
2023/09/15 04:39:00;;;;;;;5.30;3.88;;;;;;;8.88;100.00;93222.25;2084338;28;20025;-83
2023/09/15 04:40:06;;;;;;;5.03;3.33;;;;;;;8.81;100.00;93217.75;2081523;28;20037;-82
2023/09/15 04:41:07;;;;;;;6.20;4.07;;;;;;;8.77;100.00;93220.47;2088205;28;20021;-82
2023/09/15 04:42:10;;;;;;;5.07;3.50;;;;;;;8.67;100.00;93231.28;2086081;28;20047;-83
2023/09/15 04:43:12;;;;;;;5.53;3.63;;;;;;;8.58;100.00;93234.44;2082333;28;20035;-84
2023/09/15 04:44:13;;;;;;;5.82;3.83;;;;;;;8.64;100.00;93230.16;2097871;28;20104;-82
2023/09/15 04:45:14;;;;;;;5.53;3.83;;;;;;;8.68;100.00;93235.44;2091689;28;20485;-82
2023/09/15 04:46:17;;;;;;;5.43;4.03;;;;;;;8.67;100.00;93225.94;2096994;28;20443;-83
2023/09/15 04:47:32;;;;;;;5.28;3.88;;;;;;;8.69;100.00;93232.41;2090187;28;20044;-84
2023/09/15 04:48:33;;;;;;;5.65;3.75;;;;;;;8.66;100.00;93229.78;2091663;28;20021;-82
2023/09/15 04:49:34;;;;;;;4.72;3.90;;;;;;;8.61;100.00;93236.31;2081623;28;20044;-82
2023/09/15 04:50:39;;;;;;;11.32;3.78;;;;;;;8.66;100.00;93235.84;2081518;28;20107;-82
2023/09/15 04:51:40;;;;;;;8.57;3.88;;;;;;;8.70;100.00;93235.81;2089637;28;20032;-82
2023/09/15 04:52:41;;;;;;;4.90;3.63;;;;;;;8.69;100.00;93240.38;2084342;28;20029;-81
2023/09/15 04:53:42;;;;;;;7.93;3.97;;;;;;;8.69;100.00;93242.28;2098019;28;20032;-82